Time;durP1;ratioP1;P1;durP2;ratioP2;P2;SDS_P1;SDS_P2;PMS_P1;PMS_P2;Temp;Humidity;BMP_temperature;BMP_pressure;BME280_temperature;BME280_humidity;BME280_pressure;Samples;Min_cycle;Max_cycle;Signal;HPM_P1;HPM_P2
2021/11/05 00:00:39;;;;;;;68.60;39.10;;;;;;;17.59;57.97;100842.20;117531;1183;23462;-61
2021/11/05 00:03:07;;;;;;;76.10;39.90;;;;;;;17.57;57.96;100841.21;117533;1182;23105;-61
2021/11/05 00:05:36;;;;;;;68.20;37.20;;;;;;;17.54;57.97;100833.48;117540;1186;22905;-61
2021/11/05 00:08:07;;;;;;;71.50;39.80;;;;;;;17.53;58.15;100832.12;117481;1186;21851;-61
2021/11/05 00:10:37;;;;;;;76.10;42.50;;;;;;;17.54;58.10;100841.84;117450;1182;21849;-61
2021/11/05 00:13:06;;;;;;;73.50;43.10;;;;;;;17.56;58.11;100845.68;117508;1182;21846;-61
2021/11/05 00:15:34;;;;;;;71.70;41.30;;;;;;;17.57;58.04;100844.04;117444;1185;21851;-61
2021/11/05 00:18:04;;;;;;;68.20;42.50;;;;;;;17.60;58.00;100833.13;117471;1182;24146;-62
2021/11/05 00:20:32;;;;;;;64.00;42.40;;;;;;;17.64;58.05;100831.41;117582;1183;22277;-61
2021/11/05 00:23:08;;;;;;;69.20;42.80;;;;;;;17.62;58.14;100829.34;117537;1183;24269;-61
2021/11/05 00:25:37;;;;;;;;;;;;;;;17.66;58.04;100830.77;117508;1182;22931;-62
2021/11/05 00:28:05;;;;;;;69.40;42.80;;;;;;;17.69;57.99;100837.05;117484;1185;23438;-61
2021/11/05 00:30:33;;;;;;;70.30;45.00;;;;;;;17.67;58.10;100837.66;117502;1182;23458;-61
2021/11/05 00:33:02;;;;;;;70.10;44.80;;;;;;;17.70;58.08;100838.63;117524;1186;21854;-61
2021/11/05 00:35:30;;;;;;;65.50;41.50;;;;;;;17.71;58.10;100837.02;117581;1183;23465;-61
2021/11/05 00:37:59;;;;;;;61.10;42.00;;;;;;;17.71;58.12;100832.21;117517;1181;21878;-61
2021/11/05 00:40:29;;;;;;;71.40;44.80;;;;;;;17.74;58.13;100826.06;117500;1184;23443;-62
2021/11/05 00:42:58;;;;;;;66.00;42.30;;;;;;;17.75;58.02;100826.58;117557;1185;23457;-61
2021/11/05 00:45:26;;;;;;;63.10;42.90;;;;;;;17.76;58.07;100829.92;117521;1184;21995;-61
2021/11/05 00:47:57;;;;;;;63.90;44.40;;;;;;;17.75;58.06;100825.69;117496;1180;24055;-60
2021/11/05 00:50:26;;;;;;;76.50;44.80;;;;;;;17.74;58.13;100822.16;117466;1182;22329;-61
2021/11/05 00:52:55;;;;;;;68.50;44.00;;;;;;;17.77;58.05;100817.98;117437;1182;22617;-62
2021/11/05 00:55:24;;;;;;;65.80;44.40;;;;;;;17.80;58.00;100820.70;117549;1183;22953;-62
2021/11/05 00:57:52;;;;;;;66.90;45.30;;;;;;;17.82;58.11;100821.70;117554;1182;23447;-62
2021/11/05 01:00:20;;;;;;;58.60;42.70;;;;;;;17.85;58.06;100823.40;117525;1176;23470;-61
2021/11/05 01:02:49;;;;;;;67.80;43.30;;;;;;;17.87;58.00;100818.35;117389;1183;23189;-61
2021/11/05 01:05:17;;;;;;;74.10;44.90;;;;;;;17.88;57.98;100820.25;117393;1186;22317;-61
2021/11/05 01:07:46;;;;;;;61.10;44.20;;;;;;;17.90;58.00;100818.42;117519;1184;21852;-61
2021/11/05 01:10:15;;;;;;;62.70;41.70;;;;;;;17.91;58.00;100821.76;117513;1182;24145;-61
2021/11/05 01:12:43;;;;;;;65.40;43.40;;;;;;;17.91;58.03;100825.48;117512;1184;23552;-61
2021/11/05 01:15:13;;;;;;;63.70;43.40;;;;;;;17.92;57.98;100833.42;117535;1182;23537;-61
2021/11/05 01:17:41;;;;;;;63.10;41.20;;;;;;;17.92;57.96;100832.18;117550;1182;23141;-61
2021/11/05 01:20:11;;;;;;;64.20;42.40;;;;;;;17.90;58.02;100835.27;117490;1186;21851;-61
2021/11/05 01:22:39;;;;;;;57.10;40.00;;;;;;;17.89;58.04;100832.47;117501;1185;23439;-61
2021/11/05 01:25:08;;;;;;;59.40;41.90;;;;;;;17.89;58.06;100833.73;117444;1184;24153;-62
2021/11/05 01:27:37;;;;;;;63.30;41.90;;;;;;;17.92;57.84;100829.71;117342;1185;21858;-61
2021/11/05 01:30:09;;;;;;;60.30;40.60;;;;;;;17.91;58.09;100825.84;117424;1185;21848;-61
2021/11/05 01:32:38;;;;;;;62.00;39.90;;;;;;;17.91;58.07;100831.87;117473;1186;21844;-61
2021/11/05 01:35:10;;;;;;;56.20;39.60;;;;;;;17.92;58.11;100835.39;117361;1185;24148;-61
2021/11/05 01:37:38;;;;;;;54.00;39.10;;;;;;;17.91;58.06;100833.45;117410;1185;22009;-61
2021/11/05 01:40:07;;;;;;;56.60;40.20;;;;;;;17.93;58.07;100827.89;117555;1182;21851;-61
2021/11/05 01:42:36;;;;;;;54.30;37.20;;;;;;;17.93;57.97;100822.55;117522;1182;23573;-61
2021/11/05 01:45:06;;;;;;;56.70;38.60;;;;;;;17.94;57.93;100822.00;117515;1183;21851;-61
2021/11/05 01:47:38;;;;;;;55.70;39.00;;;;;;;17.93;58.01;100823.09;117620;1183;21988;-62
2021/11/05 01:50:08;;;;;;;60.10;39.90;;;;;;;17.92;58.03;100824.37;117476;1184;23635;-61
2021/11/05 01:52:38;;;;;;;48.80;38.10;;;;;;;17.91;58.03;100821.58;117586;1185;21855;-61
2021/11/05 01:55:07;;;;;;;54.40;38.50;;;;;;;17.90;58.02;100823.02;117424;1183;23634;-61
2021/11/05 01:57:36;;;;;;;54.40;39.00;;;;;;;17.90;57.98;100818.08;117513;1186;21851;-61
2021/11/05 02:00:06;;;;;;;55.80;39.50;;;;;;;17.90;57.95;100820.91;117468;1185;24201;-61
2021/11/05 02:02:34;;;;;;;48.50;36.30;;;;;;;17.89;58.01;100823.77;117478;1183;23002;-61
2021/11/05 02:05:03;;;;;;;51.80;37.30;;;;;;;17.90;58.01;100824.98;117405;1186;24164;-61
2021/11/05 02:07:35;;;;;;;56.00;37.80;;;;;;;17.90;57.98;100823.58;117528;1183;21861;-61
2021/11/05 02:10:07;;;;;;;47.60;35.40;;;;;;;17.89;57.94;100824.66;117617;1182;22784;-62
2021/11/05 02:12:35;;;;;;;49.80;36.40;;;;;;;17.89;58.00;100820.40;117451;1185;23540;-61
2021/11/05 02:15:05;;;;;;;58.00;37.60;;;;;;;17.87;57.97;100824.19;117452;1182;22824;-61
2021/11/05 02:17:34;;;;;;;49.00;36.20;;;;;;;17.86;57.96;100826.36;117518;1183;22899;-62
2021/11/05 02:20:04;;;;;;;51.20;36.10;;;;;;;17.86;57.97;100834.20;117494;1182;23462;-63
2021/11/05 02:22:32;;;;;;;51.10;34.60;;;;;;;17.86;57.94;100827.98;117532;1182;21862;-61
2021/11/05 02:25:07;;;;;;;52.50;36.00;;;;;;;17.85;57.95;100823.03;117475;1185;24293;-61
2021/11/05 02:27:36;;;;;;;50.50;34.40;;;;;;;17.83;57.94;100821.84;117525;1185;21871;-61
2021/11/05 02:30:08;;;;;;;47.20;34.70;;;;;;;17.82;57.99;100824.20;117487;1183;21960;-61
2021/11/05 02:32:36;;;;;;;50.20;32.60;;;;;;;17.79;57.95;100829.44;117499;1185;21854;-61
2021/11/05 02:35:10;;;;;;;51.60;35.80;;;;;;;17.76;58.03;100830.80;117410;1183;21857;-61
2021/11/05 02:37:39;;;;;;;52.50;35.50;;;;;;;17.76;58.04;100834.36;117521;1182;21852;-61
2021/11/05 02:40:08;;;;;;;47.80;33.20;;;;;;;17.73;58.05;100828.41;117496;1180;24206;-61
2021/11/05 02:42:38;;;;;;;48.80;34.40;;;;;;;17.72;58.07;100823.85;117532;1184;21937;-61
2021/11/05 02:45:08;;;;;;;47.90;33.60;;;;;;;17.69;58.09;100823.04;117504;1182;22613;-61
2021/11/05 02:47:36;;;;;;;48.30;33.30;;;;;;;17.68;58.09;100826.09;117520;1182;22912;-61
2021/11/05 02:50:15;;;;;;;55.70;34.80;;;;;;;17.66;58.00;100829.52;117437;1186;22985;-61
2021/11/05 02:52:43;;;;;;;51.30;33.00;;;;;;;17.66;57.95;100826.01;117386;1181;21851;-61
2021/11/05 02:55:13;;;;;;;41.90;31.60;;;;;;;17.64;57.99;100830.70;117574;1184;24161;-61
2021/11/05 02:57:42;;;;;;;;;;;;;;;17.65;57.96;100831.55;117357;1179;21836;-60
2021/11/05 03:00:11;;;;;;;49.70;32.00;;;;;;;17.66;57.97;100833.80;117422;1183;21859;-61
2021/11/05 03:02:40;;;;;;;44.00;31.90;;;;;;;17.71;57.84;100834.70;117494;1182;22893;-61
2021/11/05 03:05:11;;;;;;;46.70;32.30;;;;;;;17.65;57.90;100831.37;117548;1182;23676;-61
2021/11/05 03:07:41;;;;;;;41.00;31.90;;;;;;;17.62;57.89;100829.68;117389;1185;23467;-61
2021/11/05 03:10:12;;;;;;;44.10;30.70;;;;;;;17.60;57.92;100828.70;117468;1180;22912;-61
2021/11/05 03:12:40;;;;;;;47.00;32.20;;;;;;;17.58;57.97;100828.06;117488;1183;21845;-60
2021/11/05 03:15:09;;;;;;;44.40;32.00;;;;;;;17.57;57.92;100827.21;117426;1186;21855;-60
2021/11/05 03:17:37;;;;;;;48.80;32.00;;;;;;;17.56;57.93;100828.48;117559;1183;23461;-61
2021/11/05 03:20:08;;;;;;;44.20;31.00;;;;;;;17.53;57.93;100833.34;117363;1183;23441;-61
2021/11/05 03:22:39;;;;;;;43.10;30.80;;;;;;;17.49;58.04;100835.09;117506;1176;23465;-61
2021/11/05 03:25:08;;;;;;;42.20;30.20;;;;;;;17.36;58.27;100834.80;117559;1182;21884;-61
2021/11/05 03:27:36;;;;;;;43.70;32.30;;;;;;;17.31;58.38;100838.35;117499;1182;22903;-61
2021/11/05 03:30:05;;;;;;;46.20;30.70;;;;;;;17.40;58.22;100838.60;117535;1179;24155;-61
2021/11/05 03:32:34;;;;;;;46.00;31.20;;;;;;;17.45;58.07;100842.30;117579;1183;21852;-61
2021/11/05 03:35:04;;;;;;;44.20;30.30;;;;;;;17.45;58.18;100840.55;117503;1182;21873;-60
2021/11/05 03:37:33;;;;;;;46.10;31.60;;;;;;;17.46;58.04;100841.23;117500;1186;21856;-61
2021/11/05 03:40:05;;;;;;;42.70;30.50;;;;;;;17.43;58.09;100839.56;117463;1182;22617;-61
2021/11/05 03:42:33;;;;;;;42.70;29.90;;;;;;;17.40;58.16;100838.05;117521;1186;21851;-60
2021/11/05 03:45:01;;;;;;;42.90;31.00;;;;;;;17.42;58.22;100838.02;117485;1182;23442;-61
2021/11/05 03:47:30;;;;;;;46.10;30.70;;;;;;;17.42;58.10;100832.31;117419;1185;23461;-62
2021/11/05 03:49:58;;;;;;;49.40;32.00;;;;;;;17.43;58.09;100834.23;117526;1186;22424;-61
2021/11/05 03:52:26;;;;;;;41.80;30.40;;;;;;;17.40;58.15;100837.16;117556;1182;23438;-62
2021/11/05 03:54:55;;;;;;;45.60;30.60;;;;;;;17.39;58.28;100836.31;117490;1183;23541;-61
2021/11/05 03:57:23;;;;;;;44.90;30.50;;;;;;;17.37;58.30;100831.24;117325;1185;21877;-61
2021/11/05 03:59:53;;;;;;;48.10;30.10;;;;;;;17.37;58.29;100823.60;117492;1185;23442;-62
2021/11/05 04:02:21;;;;;;;42.30;29.50;;;;;;;17.38;58.25;100821.81;117501;1183;21857;-62
2021/11/05 04:04:51;;;;;;;43.60;30.60;;;;;;;17.36;58.29;100822.57;117460;1183;21851;-61
2021/11/05 04:07:22;;;;;;;44.00;29.80;;;;;;;17.35;58.36;100814.28;117534;1183;23541;-62
2021/11/05 04:09:50;;;;;;;39.10;28.90;;;;;;;17.36;58.30;100811.77;117527;1185;23049;-61
2021/11/05 04:12:19;;;;;;;41.80;29.20;;;;;;;17.35;58.28;100812.52;117499;1183;24139;-61
2021/11/05 04:14:48;;;;;;;45.00;30.20;;;;;;;17.37;58.31;100815.44;117451;1182;23435;-62
2021/11/05 04:17:17;;;;;;;44.70;30.10;;;;;;;17.34;58.37;100817.50;117476;1182;23461;-62
2021/11/05 04:19:45;;;;;;;44.00;29.30;;;;;;;17.36;58.28;100818.67;117381;1186;23012;-62
2021/11/05 04:22:13;;;;;;;43.60;29.00;;;;;;;17.39;58.27;100819.64;117522;1185;22030;-61
2021/11/05 04:24:42;;;;;;;41.50;29.40;;;;;;;17.40;58.21;100818.00;117467;1185;23517;-61
2021/11/05 04:27:10;;;;;;;41.50;28.70;;;;;;;17.44;58.12;100826.41;117444;1182;22432;-61
2021/11/05 04:29:38;;;;;;;45.70;29.60;;;;;;;17.44;58.27;100830.65;117453;1183;24118;-60
2021/11/05 04:32:08;;;;;;;44.90;29.60;;;;;;;17.42;58.24;100839.59;117440;1183;22985;-60
2021/11/05 04:34:36;;;;;;;43.70;29.00;;;;;;;17.40;58.16;100845.33;117545;1182;23439;-60
2021/11/05 04:37:04;;;;;;;40.40;27.60;;;;;;;17.41;58.19;100847.26;117475;1182;21855;-61
2021/11/05 04:39:33;;;;;;;40.70;26.90;;;;;;;17.38;58.20;100846.98;117601;1183;21861;-62
2021/11/05 04:42:02;;;;;;;48.90;28.20;;;;;;;17.38;58.18;100847.50;117414;1185;23500;-60
2021/11/05 04:44:30;;;;;;;40.30;28.40;;;;;;;17.38;58.24;100855.31;117405;1183;24153;-61
2021/11/05 04:46:58;;;;;;;33.90;26.60;;;;;;;17.37;58.30;100857.84;117423;1185;21842;-61
2021/11/05 04:49:27;;;;;;;34.20;25.20;;;;;;;17.39;58.38;100854.23;117393;1186;23544;-61
2021/11/05 04:51:55;;;;;;;40.40;27.70;;;;;;;17.37;58.32;100854.81;117481;1185;23470;-60
2021/11/05 04:54:23;;;;;;;41.10;28.90;;;;;;;17.36;58.25;100846.87;117435;1176;21854;-60
2021/11/05 04:56:51;;;;;;;36.00;25.50;;;;;;;17.36;58.26;100848.82;117401;1186;21920;-62
2021/11/05 04:59:20;;;;;;;40.70;27.70;;;;;;;17.35;58.32;100854.73;117468;1185;21857;-60
2021/11/05 05:01:48;;;;;;;42.80;27.10;;;;;;;17.36;58.39;100861.79;117393;1182;21851;-60
2021/11/05 05:04:16;;;;;;;35.70;25.60;;;;;;;17.35;58.38;100865.36;117341;1185;23444;-61
2021/11/05 05:06:44;;;;;;;37.00;25.60;;;;;;;17.37;58.39;100873.64;117426;1182;23436;-60
2021/11/05 05:09:13;;;;;;;29.60;23.60;;;;;;;17.37;58.37;100871.31;117429;1182;23468;-61
2021/11/05 05:11:45;;;;;;;35.00;25.20;;;;;;;17.39;58.30;100876.55;117397;1183;21989;-60
2021/11/05 05:14:14;;;;;;;40.60;25.80;;;;;;;17.36;58.39;100876.33;117406;1179;23439;-61
2021/11/05 05:16:43;;;;;;;42.60;28.30;;;;;;;17.41;58.33;100879.90;117496;1182;21873;-60
2021/11/05 05:19:11;;;;;;;37.40;26.10;;;;;;;17.44;58.40;100886.52;117427;1182;21854;-61
2021/11/05 05:21:39;;;;;;;40.40;27.10;;;;;;;17.45;58.48;100888.98;117438;1185;23471;-60
2021/11/05 05:24:08;;;;;;;34.20;25.20;;;;;;;17.46;58.42;100883.08;117462;1185;24157;-61
2021/11/05 05:26:37;;;;;;;34.20;25.60;;;;;;;17.46;58.38;100880.60;117437;1182;23656;-60
2021/11/05 05:29:10;;;;;;;40.50;26.70;;;;;;;17.47;58.37;100880.92;117431;1183;24160;-61
2021/11/05 05:31:39;;;;;;;40.00;26.50;;;;;;;17.48;58.37;100879.99;117316;1185;23453;-61
2021/11/05 05:34:07;;;;;;;37.40;27.80;;;;;;;17.50;58.44;100875.31;117314;1185;23461;-61
2021/11/05 05:36:36;;;;;;;45.70;26.90;;;;;;;17.51;58.48;100874.91;117334;1183;22928;-62
2021/11/05 05:39:04;;;;;;;39.50;26.40;;;;;;;17.53;58.46;100875.20;117389;1183;23586;-61
2021/11/05 05:41:32;;;;;;;39.30;25.40;;;;;;;17.56;58.50;100883.66;117368;1186;21857;-62
2021/11/05 05:44:00;;;;;;;41.50;26.40;;;;;;;17.56;58.56;100893.40;117374;1185;21855;-61
2021/11/05 05:46:29;;;;;;;35.20;24.40;;;;;;;17.58;58.53;100896.73;117418;1185;23461;-62
2021/11/05 05:48:57;;;;;;;38.50;26.30;;;;;;;17.62;58.59;100894.80;117455;1182;23465;-60
2021/11/05 05:51:25;;;;;;;37.50;26.10;;;;;;;17.66;58.45;100892.52;117378;1185;23453;-61
2021/11/05 05:53:53;;;;;;;42.40;26.70;;;;;;;17.70;58.53;100897.89;117436;1186;21860;-60
2021/11/05 05:56:22;;;;;;;36.90;23.40;;;;;;;17.72;58.49;100906.17;117400;1183;23473;-61
2021/11/05 05:58:51;;;;;;;35.90;25.80;;;;;;;17.74;58.69;100905.77;117465;1182;23580;-61
2021/11/05 06:01:19;;;;;;;37.50;26.00;;;;;;;17.74;58.63;100902.74;117301;1183;23445;-62
2021/11/05 06:03:48;;;;;;;34.70;25.10;;;;;;;17.81;58.59;100904.65;117376;1183;21622;-61
2021/11/05 06:06:17;;;;;;;36.80;25.90;;;;;;;17.84;58.53;100907.73;117380;1184;23526;-60
2021/11/05 06:08:45;;;;;;;36.00;25.90;;;;;;;17.85;58.60;100907.52;117393;1182;24178;-62
2021/11/05 06:11:13;;;;;;;38.80;26.10;;;;;;;17.88;58.53;100906.90;117400;1182;23451;-61
2021/11/05 06:13:58;;;;;;;33.80;24.60;;;;;;;17.89;58.58;100908.98;117376;1182;23511;-60
2021/11/05 06:16:26;;;;;;;35.00;25.60;;;;;;;17.92;58.54;100906.73;117303;1182;22837;-61
2021/11/05 06:18:54;;;;;;;34.30;25.30;;;;;;;17.97;58.52;100912.61;117398;1185;24516;-61
2021/11/05 06:21:25;;;;;;;35.80;26.20;;;;;;;18.01;58.54;100911.27;117363;1183;22522;-61
2021/11/05 06:23:53;;;;;;;33.60;25.50;;;;;;;18.02;58.59;100907.15;117400;1186;22644;-60
2021/11/05 06:26:23;;;;;;;33.00;24.10;;;;;;;18.04;58.63;100896.27;117381;1184;24294;-60
2021/11/05 06:28:51;;;;;;;35.00;24.80;;;;;;;18.05;58.59;100892.50;117378;1182;23900;-61
2021/11/05 06:31:19;;;;;;;34.60;24.20;;;;;;;18.05;58.67;100892.66;117403;1183;21855;-61
2021/11/05 06:33:48;;;;;;;32.40;23.80;;;;;;;18.07;58.69;100895.77;117387;1186;23525;-60
2021/11/05 06:36:16;;;;;;;38.30;25.10;;;;;;;18.09;58.64;100891.27;117431;1186;23566;-61
2021/11/05 06:38:44;;;;;;;37.10;25.40;;;;;;;18.09;58.56;100885.77;117425;1182;23547;-60
2021/11/05 06:41:15;;;;;;;32.40;24.20;;;;;;;18.11;58.61;100887.31;117490;1182;23646;-60
2021/11/05 06:43:44;;;;;;;28.70;23.60;;;;;;;18.13;58.67;100886.86;117410;1182;23439;-61
2021/11/05 06:46:12;;;;;;;31.80;25.70;;;;;;;18.16;58.71;100882.88;117475;1182;22322;-60
2021/11/05 06:48:41;;;;;;;34.60;24.70;;;;;;;18.18;58.75;100877.45;117392;1183;22903;-60
2021/11/05 06:51:09;;;;;;;39.40;25.00;;;;;;;18.20;58.82;100877.39;117384;1185;21853;-61
2021/11/05 06:53:37;;;;;;;32.20;25.50;;;;;;;18.25;58.86;100874.89;117357;1186;23541;-60
2021/11/05 06:56:05;;;;;;;39.50;25.70;;;;;;;18.34;58.89;100874.05;117408;1182;22807;-59
2021/11/05 06:58:38;;;;;;;34.70;24.40;;;;;;;18.42;58.88;100875.00;117356;1182;23531;-61
2021/11/05 07:01:06;;;;;;;34.40;25.80;;;;;;;18.51;58.89;100869.33;117327;1185;21888;-60
2021/11/05 07:03:35;;;;;;;29.90;23.50;;;;;;;18.57;58.83;100865.73;117383;1185;23544;-61
2021/11/05 07:06:04;;;;;;;32.30;24.80;;;;;;;18.65;58.97;100867.02;117390;1183;24156;-60
2021/11/05 07:08:32;;;;;;;32.90;23.10;;;;;;;18.79;58.97;100871.30;117354;1182;24129;-61
2021/11/05 07:11:01;;;;;;;31.90;24.70;;;;;;;18.89;58.94;100875.35;117362;1184;23634;-60
2021/11/05 07:13:30;;;;;;;31.30;23.70;;;;;;;19.01;59.04;100874.54;117379;1182;23547;-60
2021/11/05 07:15:59;;;;;;;31.60;24.00;;;;;;;19.14;59.01;100878.66;117406;1185;21855;-62
2021/11/05 07:18:29;;;;;;;31.80;22.40;;;;;;;19.25;58.96;100881.78;117398;1185;22718;-59
2021/11/05 07:21:03;;;;;;;;;;;;;;;19.33;59.00;100880.23;117425;1179;22970;-59
2021/11/05 07:23:32;;;;;;;32.90;23.80;;;;;;;19.40;59.06;100884.21;117401;1183;23442;-61
2021/11/05 07:26:01;;;;;;;107.20;42.20;;;;;;;19.47;59.09;100889.25;117390;1185;23468;-61
2021/11/05 07:28:29;;;;;;;38.60;29.20;;;;;;;19.58;59.07;100888.46;117400;1182;21986;-62
2021/11/05 07:30:58;;;;;;;35.50;27.90;;;;;;;19.69;59.18;100886.58;117409;1182;23456;-61
2021/11/05 07:33:26;;;;;;;40.50;31.40;;;;;;;19.79;59.17;100891.30;117444;1186;21895;-59
2021/11/05 07:35:54;;;;;;;40.30;30.80;;;;;;;19.92;59.07;100892.55;117491;1183;23442;-59
2021/11/05 07:38:23;;;;;;;31.20;24.30;;;;;;;20.03;59.05;100897.25;117368;1182;21865;-60
2021/11/05 07:40:51;;;;;;;27.40;21.50;;;;;;;20.15;59.10;100895.66;117447;1186;21898;-61
2021/11/05 07:43:20;;;;;;;23.40;18.20;;;;;;;20.25;59.03;100891.15;117406;1184;21854;-60
2021/11/05 07:45:49;;;;;;;25.70;18.60;;;;;;;20.33;59.02;100886.87;117456;1180;22892;-59
2021/11/05 07:48:17;;;;;;;26.90;21.70;;;;;;;20.42;59.10;100885.53;117373;1183;23452;-62
2021/11/05 07:50:48;;;;;;;22.80;17.80;;;;;;;20.51;59.16;100884.59;117403;1186;23560;-61
2021/11/05 07:53:16;;;;;;;24.80;16.90;;;;;;;20.60;59.15;100885.42;117387;1176;21862;-59
2021/11/05 07:55:46;;;;;;;23.40;16.50;;;;;;;20.69;59.14;100886.66;117338;1182;21856;-61
2021/11/05 07:58:14;;;;;;;21.90;16.50;;;;;;;20.71;59.10;100886.73;117366;1183;21860;-59
2021/11/05 08:00:42;;;;;;;24.60;17.20;;;;;;;20.72;59.26;100888.45;117352;1182;21864;-61
2021/11/05 08:03:11;;;;;;;25.10;21.60;;;;;;;20.77;59.24;100892.36;117415;1182;23470;-62
2021/11/05 08:05:43;;;;;;;21.10;16.70;;;;;;;20.81;59.20;100892.17;117354;1184;24230;-60
2021/11/05 08:08:12;;;;;;;17.80;15.00;;;;;;;20.87;59.20;100893.34;117409;1186;23433;-61
2021/11/05 08:10:45;;;;;;;23.20;15.90;;;;;;;20.94;59.23;100888.90;117408;1182;23411;-59
2021/11/05 08:13:14;;;;;;;24.60;17.60;;;;;;;21.01;59.29;100888.07;117480;1185;23917;-59
2021/11/05 08:15:47;;;;;;;23.10;15.90;;;;;;;21.08;59.30;100880.41;117438;1182;23286;-62
2021/11/05 08:18:15;;;;;;;19.50;14.90;;;;;;;21.18;59.31;100882.07;117418;1182;23031;-62
2021/11/05 08:20:44;;;;;;;19.90;13.70;;;;;;;21.27;59.24;100885.88;117403;1182;23474;-61
2021/11/05 08:23:12;;;;;;;19.70;14.70;;;;;;;21.36;59.37;100892.57;117395;1185;21963;-59
2021/11/05 08:25:44;;;;;;;18.10;15.40;;;;;;;21.47;59.46;100894.56;117464;1179;22963;-62
2021/11/05 08:28:13;;;;;;;18.10;15.70;;;;;;;21.58;59.46;100895.96;117477;1182;21855;-59
2021/11/05 08:30:41;;;;;;;20.70;14.80;;;;;;;21.70;59.38;100894.89;117386;1185;21855;-61
2021/11/05 08:33:10;;;;;;;19.30;14.20;;;;;;;21.80;59.52;100894.19;117533;1182;21857;-61
2021/11/05 08:35:40;;;;;;;18.10;13.60;;;;;;;21.90;59.38;100893.47;117380;1184;21868;-62
2021/11/05 08:38:15;;;;;;;17.90;13.60;;;;;;;22.02;59.28;100894.11;117412;1183;22425;-62
2021/11/05 08:40:44;;;;;;;21.50;13.90;;;;;;;22.11;59.27;100898.84;117395;1185;23442;-62
2021/11/05 08:43:16;;;;;;;20.40;14.70;;;;;;;22.18;59.23;100903.67;117350;1183;21858;-59
2021/11/05 08:45:44;;;;;;;20.70;13.30;;;;;;;22.22;59.17;100911.52;117412;1182;23560;-62
2021/11/05 08:48:13;;;;;;;19.80;13.40;;;;;;;22.20;59.08;100914.46;117346;1185;21855;-59
2021/11/05 08:50:43;;;;;;;19.30;13.90;;;;;;;22.19;59.04;100914.16;117394;1183;22677;-61
2021/11/05 08:53:11;;;;;;;22.90;13.20;;;;;;;22.19;59.06;100915.06;117468;1185;21859;-61
2021/11/05 08:55:40;;;;;;;17.40;13.60;;;;;;;22.20;59.10;100915.50;117404;1185;23436;-61
2021/11/05 08:58:08;;;;;;;24.60;14.60;;;;;;;22.24;59.29;100915.70;117478;1186;21881;-61
2021/11/05 09:00:37;;;;;;;17.40;12.80;;;;;;;22.32;59.35;100912.40;117400;1182;23439;-59
2021/11/05 09:03:06;;;;;;;38.50;33.90;;;;;;;22.44;59.49;100910.35;117351;1184;23471;-62
2021/11/05 09:05:36;;;;;;;16.80;14.00;;;;;;;22.56;59.57;100910.78;117404;1185;23545;-59
2021/11/05 09:08:05;;;;;;;16.70;12.50;;;;;;;22.64;59.40;100904.83;117399;1184;21862;-59
2021/11/05 09:10:40;;;;;;;16.90;12.10;;;;;;;22.69;59.54;100905.44;117378;1182;23440;-63
2021/11/05 09:13:08;;;;;;;21.30;13.30;;;;;;;22.73;59.62;100906.81;117538;1185;21860;-62
2021/11/05 09:15:36;;;;;;;18.40;11.50;;;;;;;22.81;59.55;100907.63;117428;1186;21865;-63
2021/11/05 09:18:07;;;;;;;17.20;11.30;;;;;;;22.87;59.30;100912.30;117411;1182;23657;-62
2021/11/05 09:20:36;;;;;;;15.20;11.00;;;;;;;22.91;59.23;100909.60;117404;1182;22902;-62
2021/11/05 09:23:05;;;;;;;16.00;11.20;;;;;;;22.95;59.34;100904.90;117413;1186;22094;-63
2021/11/05 09:25:34;;;;;;;13.40;11.00;;;;;;;22.95;59.30;100905.11;117381;1180;22935;-63
2021/11/05 09:28:02;;;;;;;17.50;11.90;;;;;;;23.01;59.41;100906.16;117463;1182;23338;-63
2021/11/05 09:30:30;;;;;;;17.10;11.80;;;;;;;23.12;59.57;100903.09;117411;1185;23469;-62
2021/11/05 09:32:58;;;;;;;16.40;11.60;;;;;;;23.23;59.58;100896.92;117490;1182;23569;-63
2021/11/05 09:35:27;;;;;;;14.60;10.80;;;;;;;23.34;59.52;100905.97;117406;1186;21857;-58
2021/11/05 09:37:55;;;;;;;46.30;17.50;;;;;;;23.40;59.42;100913.48;117487;1183;22628;-59
2021/11/05 09:40:25;;;;;;;18.10;11.00;;;;;;;23.39;59.29;100923.04;117389;1185;22915;-59
2021/11/05 09:42:54;;;;;;;18.70;12.70;;;;;;;23.37;59.07;100923.15;117379;1183;22640;-62
2021/11/05 09:45:26;;;;;;;17.20;11.20;;;;;;;23.33;59.00;100921.59;117441;1185;21895;-58
2021/11/05 09:47:55;;;;;;;14.90;10.20;;;;;;;23.28;59.10;100918.14;117465;1186;21864;-62
2021/11/05 09:50:24;;;;;;;15.10;11.10;;;;;;;23.23;58.99;100928.77;117415;1185;23542;-62
2021/11/05 09:52:52;;;;;;;14.10;11.00;;;;;;;23.13;59.03;100940.21;117530;1185;21854;-62
2021/11/05 09:55:20;;;;;;;13.90;10.60;;;;;;;23.10;59.09;100936.48;117521;1186;22814;-58
2021/11/05 09:57:49;;;;;;;13.60;10.20;;;;;;;23.11;59.23;100936.77;117543;1182;21855;-63
2021/11/05 10:00:19;;;;;;;28.40;22.40;;;;;;;23.11;59.32;100930.30;117511;1185;23438;-58
2021/11/05 10:02:48;;;;;;;14.90;10.90;;;;;;;23.13;59.46;100925.52;117432;1183;21854;-63
2021/11/05 10:05:16;;;;;;;15.10;11.60;;;;;;;23.13;59.50;100923.58;117535;1182;23073;-62
2021/11/05 10:07:50;;;;;;;116.40;93.50;;;;;;;23.13;59.46;100922.48;117514;1182;23507;-61
2021/11/05 10:10:26;;;;;;;50.20;38.20;;;;;;;23.13;59.22;100919.10;117472;1185;21863;-58
2021/11/05 10:13:02;;;;;;;18.70;12.20;;;;;;;23.15;59.39;100916.51;117411;1183;21862;-56
2021/11/05 10:15:45;;;;;;;16.40;10.90;;;;;;;23.19;59.41;100916.80;117423;1182;23547;-58
2021/11/05 10:18:17;;;;;;;14.60;10.00;;;;;;;23.26;59.29;100911.23;117423;1182;21863;-62
2021/11/05 10:20:46;;;;;;;15.10;10.10;;;;;;;23.26;59.03;100906.98;117426;1183;21855;-59
2021/11/05 10:23:15;;;;;;;17.90;10.40;;;;;;;23.19;58.86;100900.02;117468;1186;23738;-59
2021/11/05 10:25:47;;;;;;;15.20;10.20;;;;;;;23.11;58.86;100893.61;117540;1185;23541;-58
2021/11/05 10:28:17;;;;;;;19.00;10.30;;;;;;;23.09;59.00;100893.92;117536;1183;21855;-63
2021/11/05 10:30:45;;;;;;;15.10;10.10;;;;;;;23.09;58.96;100893.39;117524;1183;22953;-59
2021/11/05 10:33:15;;;;;;;15.00;10.70;;;;;;;23.02;59.19;100891.63;117421;1186;21855;-58
2021/11/05 10:35:48;;;;;;;14.00;10.50;;;;;;;23.05;59.35;100890.23;117528;1183;21943;-59
2021/11/05 10:38:34;;;;;;;13.90;10.30;;;;;;;23.12;59.24;100884.08;117513;1182;23468;-62
2021/11/05 10:41:03;;;;;;;;;;;;;;;23.16;59.25;100881.15;117359;1182;21885;-59
2021/11/05 10:43:33;;;;;;;15.60;10.00;;;;;;;23.20;59.34;100873.27;117420;1182;21857;-62
2021/11/05 10:46:02;;;;;;;15.00;10.90;;;;;;;23.24;59.35;100869.13;117465;1184;23699;-58
2021/11/05 10:48:34;;;;;;;14.10;11.20;;;;;;;23.30;59.31;100871.27;117421;1183;23442;-58
2021/11/05 10:51:04;;;;;;;15.60;11.00;;;;;;;23.39;59.07;100871.48;117421;1182;22320;-61
2021/11/05 10:53:40;;;;;;;;;;;;;;;23.38;58.87;100871.21;117538;1184;24290;-62
2021/11/05 10:56:18;;;;;;;16.50;11.00;;;;;;;23.35;58.93;100863.69;117520;1184;21961;-62
2021/11/05 10:58:50;;;;;;;16.30;11.50;;;;;;;23.25;59.11;100856.35;117448;1185;21984;-59
2021/11/05 11:01:20;;;;;;;18.50;12.10;;;;;;;23.21;59.09;100855.50;117510;1183;23436;-61
2021/11/05 11:03:55;;;;;;;15.00;11.00;;;;;;;23.17;59.07;100853.18;117526;1182;21853;-58
2021/11/05 11:06:47;;;;;;;14.40;10.80;;;;;;;23.14;59.19;100849.96;117524;1182;22747;-60
2021/11/05 11:09:19;;;;;;;16.80;12.30;;;;;;;23.19;59.32;100845.38;117525;1182;23465;-59
2021/11/05 11:11:52;;;;;;;16.90;11.60;;;;;;;23.27;59.40;100845.67;117438;1184;21859;-62